sensor_id;sensor_type;location;lat;lon;timestamp;P1;durP1;ratioP1;P2;durP2;ratioP2
25449;SDS011;13371;52.080;5.624;2023-02-03T00:01:12;12.50;;;3.78;;
25449;SDS011;13371;52.080;5.624;2023-02-03T00:03:38;16.92;;;3.53;;
25449;SDS011;13371;52.080;5.624;2023-02-03T00:06:04;16.10;;;3.60;;
25449;SDS011;13371;52.080;5.624;2023-02-03T00:08:30;11.23;;;3.17;;
25449;SDS011;13371;52.080;5.624;2023-02-03T00:10:57;10.80;;;3.05;;
25449;SDS011;13371;52.080;5.624;2023-02-03T00:13:23;12.77;;;3.63;;
25449;SDS011;13371;52.080;5.624;2023-02-03T00:15:50;17.80;;;3.22;;
25449;SDS011;13371;52.080;5.624;2023-02-03T00:18:16;13.10;;;2.97;;
25449;SDS011;13371;52.080;5.624;2023-02-03T00:20:41;16.10;;;3.05;;
25449;SDS011;13371;52.080;5.624;2023-02-03T00:23:08;13.80;;;2.58;;
25449;SDS011;13371;52.080;5.624;2023-02-03T00:25:35;16.63;;;2.88;;
25449;SDS011;13371;52.080;5.624;2023-02-03T00:28:01;11.63;;;2.95;;
25449;SDS011;13371;52.080;5.624;2023-02-03T00:30:27;14.25;;;3.25;;
25449;SDS011;13371;52.080;5.624;2023-02-03T00:32:53;14.77;;;3.42;;
25449;SDS011;13371;52.080;5.624;2023-02-03T00:35:19;19.80;;;3.28;;
25449;SDS011;13371;52.080;5.624;2023-02-03T00:37:49;14.30;;;3.42;;
25449;SDS011;13371;52.080;5.624;2023-02-03T00:40:17;13.13;;;2.50;;
25449;SDS011;13371;52.080;5.624;2023-02-03T00:42:43;11.85;;;3.50;;
25449;SDS011;13371;52.080;5.624;2023-02-03T00:45:08;11.45;;;3.50;;
25449;SDS011;13371;52.080;5.624;2023-02-03T00:47:34;13.77;;;3.03;;
25449;SDS011;13371;52.080;5.624;2023-02-03T00:50:00;12.43;;;3.60;;
25449;SDS011;13371;52.080;5.624;2023-02-03T00:52:25;13.25;;;4.15;;
25449;SDS011;13371;52.080;5.624;2023-02-03T00:54:51;12.45;;;3.13;;
25449;SDS011;13371;52.080;5.624;2023-02-03T00:57:16;10.13;;;3.05;;
25449;SDS011;13371;52.080;5.624;2023-02-03T00:59:42;15.85;;;2.72;;
25449;SDS011;13371;52.080;5.624;2023-02-03T01:02:07;15.10;;;3.28;;
25449;SDS011;13371;52.080;5.624;2023-02-03T01:04:33;15.43;;;3.20;;
25449;SDS011;13371;52.080;5.624;2023-02-03T01:06:58;12.85;;;3.05;;
25449;SDS011;13371;52.080;5.624;2023-02-03T01:09:24;12.70;;;3.03;;
25449;SDS011;13371;52.080;5.624;2023-02-03T01:11:50;10.32;;;2.88;;
25449;SDS011;13371;52.080;5.624;2023-02-03T01:14:16;15.52;;;2.92;;
25449;SDS011;13371;52.080;5.624;2023-02-03T01:16:41;14.23;;;2.83;;
25449;SDS011;13371;52.080;5.624;2023-02-03T01:19:07;20.98;;;3.45;;
25449;SDS011;13371;52.080;5.624;2023-02-03T01:21:33;18.73;;;3.38;;
25449;SDS011;13371;52.080;5.624;2023-02-03T01:24:00;10.93;;;3.20;;
25449;SDS011;13371;52.080;5.624;2023-02-03T01:26:26;14.00;;;2.88;;
25449;SDS011;13371;52.080;5.624;2023-02-03T01:28:56;9.93;;;3.05;;
25449;SDS011;13371;52.080;5.624;2023-02-03T01:31:26;20.83;;;3.17;;
25449;SDS011;13371;52.080;5.624;2023-02-03T01:33:54;19.40;;;3.92;;
25449;SDS011;13371;52.080;5.624;2023-02-03T01:36:21;11.18;;;2.90;;
25449;SDS011;13371;52.080;5.624;2023-02-03T01:38:48;13.23;;;2.67;;
25449;SDS011;13371;52.080;5.624;2023-02-03T01:41:15;14.30;;;3.22;;
25449;SDS011;13371;52.080;5.624;2023-02-03T01:43:47;12.10;;;3.38;;
25449;SDS011;13371;52.080;5.624;2023-02-03T01:48:46;9.63;;;2.45;;
25449;SDS011;13371;52.080;5.624;2023-02-03T01:51:12;9.70;;;2.22;;
25449;SDS011;13371;52.080;5.624;2023-02-03T01:53:38;11.80;;;2.25;;
25449;SDS011;13371;52.080;5.624;2023-02-03T01:56:04;16.08;;;2.63;;
25449;SDS011;13371;52.080;5.624;2023-02-03T01:58:32;8.55;;;2.25;;
25449;SDS011;13371;52.080;5.624;2023-02-03T02:01:02;8.73;;;2.75;;
25449;SDS011;13371;52.080;5.624;2023-02-03T02:03:35;9.50;;;2.92;;
25449;SDS011;13371;52.080;5.624;2023-02-03T02:06:06;12.40;;;2.92;;
25449;SDS011;13371;52.080;5.624;2023-02-03T02:08:36;12.52;;;3.38;;
25449;SDS011;13371;52.080;5.624;2023-02-03T02:11:04;11.68;;;2.60;;
25449;SDS011;13371;52.080;5.624;2023-02-03T02:13:31;13.30;;;2.83;;
25449;SDS011;13371;52.080;5.624;2023-02-03T02:18:32;14.95;;;2.45;;
25449;SDS011;13371;52.080;5.624;2023-02-03T02:21:11;9.63;;;2.33;;
25449;SDS011;13371;52.080;5.624;2023-02-03T02:23:58;9.90;;;2.42;;
25449;SDS011;13371;52.080;5.624;2023-02-03T02:27:02;12.80;;;2.25;;
25449;SDS011;13371;52.080;5.624;2023-02-03T02:37:24;16.10;;;2.70;;
25449;SDS011;13371;52.080;5.624;2023-02-03T02:43:07;9.98;;;2.22;;
25449;SDS011;13371;52.080;5.624;2023-02-03T02:50:58;9.07;;;1.80;;
25449;SDS011;13371;52.080;5.624;2023-02-03T02:53:27;10.57;;;2.35;;
25449;SDS011;13371;52.080;5.624;2023-02-03T02:55:57;12.68;;;2.70;;
25449;SDS011;13371;52.080;5.624;2023-02-03T02:58:27;6.63;;;1.60;;
25449;SDS011;13371;52.080;5.624;2023-02-03T03:00:53;12.25;;;2.53;;
25449;SDS011;13371;52.080;5.624;2023-02-03T03:03:21;14.43;;;2.60;;
25449;SDS011;13371;52.080;5.624;2023-02-03T03:05:50;11.02;;;2.05;;
25449;SDS011;13371;52.080;5.624;2023-02-03T03:08:20;9.93;;;2.05;;
25449;SDS011;13371;52.080;5.624;2023-02-03T03:10:50;9.07;;;1.85;;
25449;SDS011;13371;52.080;5.624;2023-02-03T03:13:19;8.80;;;1.92;;
25449;SDS011;13371;52.080;5.624;2023-02-03T03:15:50;9.77;;;1.98;;
25449;SDS011;13371;52.080;5.624;2023-02-03T03:18:22;8.93;;;1.90;;
25449;SDS011;13371;52.080;5.624;2023-02-03T03:20:52;12.25;;;1.60;;
25449;SDS011;13371;52.080;5.624;2023-02-03T03:23:26;7.53;;;1.73;;
25449;SDS011;13371;52.080;5.624;2023-02-03T03:26:13;8.20;;;1.70;;
25449;SDS011;13371;52.080;5.624;2023-02-03T03:28:48;7.32;;;1.60;;
25449;SDS011;13371;52.080;5.624;2023-02-03T03:31:16;11.10;;;2.25;;
25449;SDS011;13371;52.080;5.624;2023-02-03T03:33:44;8.43;;;2.33;;
25449;SDS011;13371;52.080;5.624;2023-02-03T03:38:56;6.10;;;2.05;;
25449;SDS011;13371;52.080;5.624;2023-02-03T03:44:30;5.00;;;1.70;;
25449;SDS011;13371;52.080;5.624;2023-02-03T03:47:07;4.95;;;1.25;;
25449;SDS011;13371;52.080;5.624;2023-02-03T03:49:48;5.05;;;1.50;;
25449;SDS011;13371;52.080;5.624;2023-02-03T03:52:17;5.60;;;1.92;;
25449;SDS011;13371;52.080;5.624;2023-02-03T03:54:47;9.05;;;1.67;;
25449;SDS011;13371;52.080;5.624;2023-02-03T03:59:45;10.68;;;2.13;;
25449;SDS011;13371;52.080;5.624;2023-02-03T04:02:13;12.93;;;1.60;;
25449;SDS011;13371;52.080;5.624;2023-02-03T04:04:41;4.43;;;1.48;;
25449;SDS011;13371;52.080;5.624;2023-02-03T04:07:08;5.35;;;1.35;;
25449;SDS011;13371;52.080;5.624;2023-02-03T04:09:34;4.35;;;1.45;;
25449;SDS011;13371;52.080;5.624;2023-02-03T04:12:03;5.45;;;1.67;;
25449;SDS011;13371;52.080;5.624;2023-02-03T04:14:34;7.70;;;1.98;;
25449;SDS011;13371;52.080;5.624;2023-02-03T04:17:02;8.38;;;2.20;;
25449;SDS011;13371;52.080;5.624;2023-02-03T04:19:28;5.95;;;1.30;;
25449;SDS011;13371;52.080;5.624;2023-02-03T04:21:54;9.90;;;2.15;;
25449;SDS011;13371;52.080;5.624;2023-02-03T04:24:20;5.75;;;1.70;;
25449;SDS011;13371;52.080;5.624;2023-02-03T04:26:45;7.75;;;1.55;;
25449;SDS011;13371;52.080;5.624;2023-02-03T04:29:11;8.80;;;1.52;;
25449;SDS011;13371;52.080;5.624;2023-02-03T04:31:36;6.82;;;1.48;;
25449;SDS011;13371;52.080;5.624;2023-02-03T04:34:02;9.35;;;1.85;;
25449;SDS011;13371;52.080;5.624;2023-02-03T04:36:28;8.98;;;1.65;;
25449;SDS011;13371;52.080;5.624;2023-02-03T04:38:54;8.00;;;1.33;;
25449;SDS011;13371;52.080;5.624;2023-02-03T04:41:20;11.45;;;2.28;;
25449;SDS011;13371;52.080;5.624;2023-02-03T04:43:45;6.10;;;1.85;;
25449;SDS011;13371;52.080;5.624;2023-02-03T04:46:11;6.68;;;1.33;;
25449;SDS011;13371;52.080;5.624;2023-02-03T04:48:36;10.63;;;2.20;;
25449;SDS011;13371;52.080;5.624;2023-02-03T04:51:06;8.63;;;1.65;;
25449;SDS011;13371;52.080;5.624;2023-02-03T04:53:32;3.85;;;1.10;;
25449;SDS011;13371;52.080;5.624;2023-02-03T04:55:58;9.30;;;1.58;;
25449;SDS011;13371;52.080;5.624;2023-02-03T04:58:24;12.68;;;1.48;;
25449;SDS011;13371;52.080;5.624;2023-02-03T05:00:51;8.48;;;2.15;;
25449;SDS011;13371;52.080;5.624;2023-02-03T05:03:17;10.13;;;1.65;;
25449;SDS011;13371;52.080;5.624;2023-02-03T05:05:43;11.43;;;1.83;;
25449;SDS011;13371;52.080;5.624;2023-02-03T05:08:08;8.68;;;1.50;;
25449;SDS011;13371;52.080;5.624;2023-02-03T05:10:34;7.57;;;1.73;;
25449;SDS011;13371;52.080;5.624;2023-02-03T05:12:59;5.82;;;1.25;;
25449;SDS011;13371;52.080;5.624;2023-02-03T05:15:25;9.80;;;1.55;;
25449;SDS011;13371;52.080;5.624;2023-02-03T05:17:54;10.02;;;1.83;;
25449;SDS011;13371;52.080;5.624;2023-02-03T05:20:20;8.30;;;1.30;;
25449;SDS011;13371;52.080;5.624;2023-02-03T05:22:46;7.50;;;1.60;;
25449;SDS011;13371;52.080;5.624;2023-02-03T05:25:11;9.40;;;1.67;;
25449;SDS011;13371;52.080;5.624;2023-02-03T05:27:40;12.38;;;1.77;;
25449;SDS011;13371;52.080;5.624;2023-02-03T05:30:07;7.90;;;1.27;;
25449;SDS011;13371;52.080;5.624;2023-02-03T05:32:33;10.68;;;1.65;;
25449;SDS011;13371;52.080;5.624;2023-02-03T05:34:59;7.07;;;1.33;;
25449;SDS011;13371;52.080;5.624;2023-02-03T05:37:25;8.88;;;1.80;;
25449;SDS011;13371;52.080;5.624;2023-02-03T05:39:50;7.32;;;1.63;;
25449;SDS011;13371;52.080;5.624;2023-02-03T05:42:16;9.07;;;1.40;;
25449;SDS011;13371;52.080;5.624;2023-02-03T05:44:41;7.47;;;1.50;;
25449;SDS011;13371;52.080;5.624;2023-02-03T05:47:07;5.40;;;1.38;;
25449;SDS011;13371;52.080;5.624;2023-02-03T05:49:33;5.50;;;1.27;;
25449;SDS011;13371;52.080;5.624;2023-02-03T05:51:58;6.22;;;1.27;;
25449;SDS011;13371;52.080;5.624;2023-02-03T05:54:24;6.47;;;1.42;;
25449;SDS011;13371;52.080;5.624;2023-02-03T05:56:50;11.48;;;1.42;;
25449;SDS011;13371;52.080;5.624;2023-02-03T05:59:16;6.93;;;1.45;;
25449;SDS011;13371;52.080;5.624;2023-02-03T06:01:41;9.90;;;1.70;;
25449;SDS011;13371;52.080;5.624;2023-02-03T06:04:07;7.55;;;1.60;;
25449;SDS011;13371;52.080;5.624;2023-02-03T06:06:33;6.78;;;1.50;;
25449;SDS011;13371;52.080;5.624;2023-02-03T06:08:59;11.25;;;1.95;;
25449;SDS011;13371;52.080;5.624;2023-02-03T06:11:26;3.90;;;1.60;;
25449;SDS011;13371;52.080;5.624;2023-02-03T06:13:52;9.73;;;1.63;;
25449;SDS011;13371;52.080;5.624;2023-02-03T06:16:18;6.00;;;1.23;;
25449;SDS011;13371;52.080;5.624;2023-02-03T06:18:44;3.17;;;1.42;;
25449;SDS011;13371;52.080;5.624;2023-02-03T06:21:10;11.95;;;2.17;;
25449;SDS011;13371;52.080;5.624;2023-02-03T06:23:35;10.68;;;1.80;;
25449;SDS011;13371;52.080;5.624;2023-02-03T06:26:01;9.93;;;1.45;;
25449;SDS011;13371;52.080;5.624;2023-02-03T06:28:26;6.88;;;1.58;;
25449;SDS011;13371;52.080;5.624;2023-02-03T06:30:52;6.20;;;1.60;;
25449;SDS011;13371;52.080;5.624;2023-02-03T06:33:20;9.02;;;1.55;;
25449;SDS011;13371;52.080;5.624;2023-02-03T06:35:46;7.18;;;1.60;;
25449;SDS011;13371;52.080;5.624;2023-02-03T06:38:12;11.52;;;1.95;;
25449;SDS011;13371;52.080;5.624;2023-02-03T06:40:41;9.10;;;2.08;;
25449;SDS011;13371;52.080;5.624;2023-02-03T06:43:06;8.23;;;1.23;;
25449;SDS011;13371;52.080;5.624;2023-02-03T06:45:32;7.57;;;1.73;;
25449;SDS011;13371;52.080;5.624;2023-02-03T06:47:58;8.48;;;1.90;;
25449;SDS011;13371;52.080;5.624;2023-02-03T06:50:24;5.68;;;1.92;;
25449;SDS011;13371;52.080;5.624;2023-02-03T06:52:49;7.88;;;1.98;;
25449;SDS011;13371;52.080;5.624;2023-02-03T06:55:15;9.13;;;1.50;;
25449;SDS011;13371;52.080;5.624;2023-02-03T06:57:44;6.05;;;1.55;;
25449;SDS011;13371;52.080;5.624;2023-02-03T07:00:11;9.05;;;1.98;;
25449;SDS011;13371;52.080;5.624;2023-02-03T07:02:37;7.00;;;1.67;;
25449;SDS011;13371;52.080;5.624;2023-02-03T07:05:04;7.43;;;1.95;;
25449;SDS011;13371;52.080;5.624;2023-02-03T07:07:32;10.50;;;1.85;;
25449;SDS011;13371;52.080;5.624;2023-02-03T07:09:58;10.05;;;2.00;;
25449;SDS011;13371;52.080;5.624;2023-02-03T07:12:24;6.55;;;1.45;;
25449;SDS011;13371;52.080;5.624;2023-02-03T07:14:50;5.80;;;1.52;;
25449;SDS011;13371;52.080;5.624;2023-02-03T07:17:15;9.25;;;1.90;;
25449;SDS011;13371;52.080;5.624;2023-02-03T07:19:41;13.43;;;1.83;;
25449;SDS011;13371;52.080;5.624;2023-02-03T07:22:07;9.05;;;1.83;;
25449;SDS011;13371;52.080;5.624;2023-02-03T07:24:36;7.97;;;1.73;;
25449;SDS011;13371;52.080;5.624;2023-02-03T07:27:02;5.22;;;1.73;;
25449;SDS011;13371;52.080;5.624;2023-02-03T07:29:28;11.88;;;2.55;;
25449;SDS011;13371;52.080;5.624;2023-02-03T07:31:53;4.55;;;1.67;;
25449;SDS011;13371;52.080;5.624;2023-02-03T07:34:19;11.10;;;1.80;;
25449;SDS011;13371;52.080;5.624;2023-02-03T07:36:44;11.00;;;2.33;;
25449;SDS011;13371;52.080;5.624;2023-02-03T07:39:10;7.95;;;2.33;;
25449;SDS011;13371;52.080;5.624;2023-02-03T07:41:35;6.80;;;2.10;;
25449;SDS011;13371;52.080;5.624;2023-02-03T07:44:01;10.32;;;2.05;;
25449;SDS011;13371;52.080;5.624;2023-02-03T07:46:27;8.77;;;2.30;;
25449;SDS011;13371;52.080;5.624;2023-02-03T07:48:53;6.40;;;1.58;;
25449;SDS011;13371;52.080;5.624;2023-02-03T07:51:18;10.25;;;1.95;;
25449;SDS011;13371;52.080;5.624;2023-02-03T07:53:44;13.38;;;2.88;;
25449;SDS011;13371;52.080;5.624;2023-02-03T07:56:10;6.10;;;1.88;;
25449;SDS011;13371;52.080;5.624;2023-02-03T07:58:36;8.88;;;2.10;;
25449;SDS011;13371;52.080;5.624;2023-02-03T08:01:08;8.25;;;2.03;;
25449;SDS011;13371;52.080;5.624;2023-02-03T08:03:36;9.07;;;2.10;;
25449;SDS011;13371;52.080;5.624;2023-02-03T08:06:01;9.07;;;2.33;;
25449;SDS011;13371;52.080;5.624;2023-02-03T08:08:27;5.97;;;1.60;;
25449;SDS011;13371;52.080;5.624;2023-02-03T08:10:56;13.18;;;2.22;;
25449;SDS011;13371;52.080;5.624;2023-02-03T08:13:21;8.90;;;1.80;;
25449;SDS011;13371;52.080;5.624;2023-02-03T08:15:47;6.28;;;1.85;;
25449;SDS011;13371;52.080;5.624;2023-02-03T08:18:12;5.55;;;1.65;;
25449;SDS011;13371;52.080;5.624;2023-02-03T08:20:38;7.35;;;1.80;;
25449;SDS011;13371;52.080;5.624;2023-02-03T08:23:04;6.32;;;2.05;;
25449;SDS011;13371;52.080;5.624;2023-02-03T08:25:30;11.82;;;2.20;;
25449;SDS011;13371;52.080;5.624;2023-02-03T08:27:56;8.57;;;1.85;;
25449;SDS011;13371;52.080;5.624;2023-02-03T08:30:22;7.47;;;1.60;;
25449;SDS011;13371;52.080;5.624;2023-02-03T08:32:47;7.70;;;1.77;;
25449;SDS011;13371;52.080;5.624;2023-02-03T08:35:13;7.53;;;1.73;;
25449;SDS011;13371;52.080;5.624;2023-02-03T08:37:39;9.88;;;1.98;;
25449;SDS011;13371;52.080;5.624;2023-02-03T08:40:05;11.00;;;2.30;;
25449;SDS011;13371;52.080;5.624;2023-02-03T08:42:31;8.35;;;2.33;;
25449;SDS011;13371;52.080;5.624;2023-02-03T08:44:57;9.98;;;2.28;;
25449;SDS011;13371;52.080;5.624;2023-02-03T08:47:25;9.73;;;1.65;;
25449;SDS011;13371;52.080;5.624;2023-02-03T08:49:51;11.77;;;2.28;;
25449;SDS011;13371;52.080;5.624;2023-02-03T08:52:17;9.70;;;1.80;;
25449;SDS011;13371;52.080;5.624;2023-02-03T08:54:43;7.78;;;2.05;;
25449;SDS011;13371;52.080;5.624;2023-02-03T08:57:09;10.35;;;2.08;;
25449;SDS011;13371;52.080;5.624;2023-02-03T08:59:36;8.88;;;2.15;;
25449;SDS011;13371;52.080;5.624;2023-02-03T09:02:04;7.78;;;1.80;;
25449;SDS011;13371;52.080;5.624;2023-02-03T09:04:31;9.18;;;1.88;;
25449;SDS011;13371;52.080;5.624;2023-02-03T09:06:58;7.13;;;1.98;;
25449;SDS011;13371;52.080;5.624;2023-02-03T09:09:24;8.27;;;1.95;;
25449;SDS011;13371;52.080;5.624;2023-02-03T09:11:51;12.73;;;2.67;;
25449;SDS011;13371;52.080;5.624;2023-02-03T09:14:19;12.20;;;2.08;;
25449;SDS011;13371;52.080;5.624;2023-02-03T09:16:45;9.90;;;1.75;;
25449;SDS011;13371;52.080;5.624;2023-02-03T09:19:10;12.30;;;2.28;;
25449;SDS011;13371;52.080;5.624;2023-02-03T09:21:37;8.07;;;2.45;;
25449;SDS011;13371;52.080;5.624;2023-02-03T09:24:03;10.98;;;2.45;;
25449;SDS011;13371;52.080;5.624;2023-02-03T09:26:28;7.00;;;2.47;;
25449;SDS011;13371;52.080;5.624;2023-02-03T09:28:54;7.55;;;2.35;;
25449;SDS011;13371;52.080;5.624;2023-02-03T09:31:20;11.23;;;2.00;;
25449;SDS011;13371;52.080;5.624;2023-02-03T09:33:46;4.65;;;1.92;;
25449;SDS011;13371;52.080;5.624;2023-02-03T09:36:11;8.35;;;2.15;;
25449;SDS011;13371;52.080;5.624;2023-02-03T09:38:37;8.15;;;1.70;;
25449;SDS011;13371;52.080;5.624;2023-02-03T09:43:40;8.93;;;2.17;;
25449;SDS011;13371;52.080;5.624;2023-02-03T09:46:18;11.23;;;2.40;;
25449;SDS011;13371;52.080;5.624;2023-02-03T09:48:50;11.25;;;2.38;;
25449;SDS011;13371;52.080;5.624;2023-02-03T09:51:21;8.77;;;2.05;;
25449;SDS011;13371;52.080;5.624;2023-02-03T09:53:57;6.05;;;2.80;;
25449;SDS011;13371;52.080;5.624;2023-02-03T09:56:30;7.93;;;1.93;;
25449;SDS011;13371;52.080;5.624;2023-02-03T09:58:58;11.68;;;2.88;;
25449;SDS011;13371;52.080;5.624;2023-02-03T10:01:26;12.88;;;2.88;;
25449;SDS011;13371;52.080;5.624;2023-02-03T10:04:09;4.63;;;1.52;;
25449;SDS011;13371;52.080;5.624;2023-02-03T10:07:45;20.60;;;4.03;;
25449;SDS011;13371;52.080;5.624;2023-02-03T10:12:54;11.05;;;2.83;;
25449;SDS011;13371;52.080;5.624;2023-02-03T10:15:47;8.20;;;2.40;;
25449;SDS011;13371;52.080;5.624;2023-02-03T10:18:22;5.95;;;2.03;;
25449;SDS011;13371;52.080;5.624;2023-02-03T10:20:53;8.65;;;2.22;;
25449;SDS011;13371;52.080;5.624;2023-02-03T10:23:24;10.07;;;2.80;;
25449;SDS011;13371;52.080;5.624;2023-02-03T10:25:54;5.82;;;1.90;;
25449;SDS011;13371;52.080;5.624;2023-02-03T10:28:27;9.60;;;2.35;;
25449;SDS011;13371;52.080;5.624;2023-02-03T10:30:59;11.15;;;2.03;;
25449;SDS011;13371;52.080;5.624;2023-02-03T10:33:29;10.57;;;1.85;;
25449;SDS011;13371;52.080;5.624;2023-02-03T10:36:02;7.28;;;1.83;;
25449;SDS011;13371;52.080;5.624;2023-02-03T10:38:42;10.25;;;2.20;;
25449;SDS011;13371;52.080;5.624;2023-02-03T10:41:29;6.90;;;1.98;;
25449;SDS011;13371;52.080;5.624;2023-02-03T10:43:56;6.28;;;1.92;;
25449;SDS011;13371;52.080;5.624;2023-02-03T10:46:28;14.50;;;2.40;;
25449;SDS011;13371;52.080;5.624;2023-02-03T10:48:57;9.35;;;1.92;;
25449;SDS011;13371;52.080;5.624;2023-02-03T10:51:27;11.50;;;2.22;;
25449;SDS011;13371;52.080;5.624;2023-02-03T10:54:00;8.43;;;2.15;;
25449;SDS011;13371;52.080;5.624;2023-02-03T10:56:28;4.22;;;1.50;;
25449;SDS011;13371;52.080;5.624;2023-02-03T10:59:00;9.85;;;2.08;;
25449;SDS011;13371;52.080;5.624;2023-02-03T11:01:37;7.15;;;1.60;;
25449;SDS011;13371;52.080;5.624;2023-02-03T11:04:05;7.25;;;1.75;;
25449;SDS011;13371;52.080;5.624;2023-02-03T11:06:32;6.78;;;1.75;;
25449;SDS011;13371;52.080;5.624;2023-02-03T11:08:59;8.13;;;2.03;;
25449;SDS011;13371;52.080;5.624;2023-02-03T11:11:26;10.88;;;1.98;;
25449;SDS011;13371;52.080;5.624;2023-02-03T11:16:27;11.07;;;1.70;;
25449;SDS011;13371;52.080;5.624;2023-02-03T11:18:59;11.40;;;2.60;;
25449;SDS011;13371;52.080;5.624;2023-02-03T11:24:17;8.02;;;2.03;;
25449;SDS011;13371;52.080;5.624;2023-02-03T11:29:27;9.02;;;1.80;;
25449;SDS011;13371;52.080;5.624;2023-02-03T11:31:56;9.00;;;2.53;;
25449;SDS011;13371;52.080;5.624;2023-02-03T11:34:24;12.60;;;2.05;;
25449;SDS011;13371;52.080;5.624;2023-02-03T11:37:45;11.20;;;2.35;;
25449;SDS011;13371;52.080;5.624;2023-02-03T11:42:32;9.82;;;1.83;;
25449;SDS011;13371;52.080;5.624;2023-02-03T12:07:25;8.13;;;2.47;;
25449;SDS011;13371;52.080;5.624;2023-02-03T12:14:06;9.38;;;1.92;;
25449;SDS011;13371;52.080;5.624;2023-02-03T12:21:55;6.07;;;1.67;;
25449;SDS011;13371;52.080;5.624;2023-02-03T12:27:33;9.73;;;2.58;;
25449;SDS011;13371;52.080;5.624;2023-02-03T12:30:17;10.52;;;2.45;;
25449;SDS011;13371;52.080;5.624;2023-02-03T12:32:49;9.50;;;2.45;;
25449;SDS011;13371;52.080;5.624;2023-02-03T12:38:06;15.90;;;2.70;;
25449;SDS011;13371;52.080;5.624;2023-02-03T12:40:47;7.80;;;2.17;;
25449;SDS011;13371;52.080;5.624;2023-02-03T12:46:22;12.10;;;2.67;;
25449;SDS011;13371;52.080;5.624;2023-02-03T12:48:54;12.65;;;3.25;;
25449;SDS011;13371;52.080;5.624;2023-02-03T12:51:44;12.85;;;3.28;;
25449;SDS011;13371;52.080;5.624;2023-02-03T12:56:49;10.23;;;2.65;;
25449;SDS011;13371;52.080;5.624;2023-02-03T12:59:19;15.68;;;3.08;;
25449;SDS011;13371;52.080;5.624;2023-02-03T13:01:57;14.02;;;3.35;;
25449;SDS011;13371;52.080;5.624;2023-02-03T13:04:34;15.48;;;3.47;;
25449;SDS011;13371;52.080;5.624;2023-02-03T13:13:06;11.90;;;4.50;;
25449;SDS011;13371;52.080;5.624;2023-02-03T13:15:38;13.32;;;3.70;;
25449;SDS011;13371;52.080;5.624;2023-02-03T13:20:50;11.18;;;3.60;;
25449;SDS011;13371;52.080;5.624;2023-02-03T13:23:19;19.10;;;4.22;;
25449;SDS011;13371;52.080;5.624;2023-02-03T13:25:49;14.75;;;3.80;;
25449;SDS011;13371;52.080;5.624;2023-02-03T13:36:32;14.82;;;3.70;;
25449;SDS011;13371;52.080;5.624;2023-02-03T13:41:41;18.95;;;4.57;;
25449;SDS011;13371;52.080;5.624;2023-02-03T13:44:10;19.13;;;3.42;;
25449;SDS011;13371;52.080;5.624;2023-02-03T13:46:39;17.52;;;3.72;;
25449;SDS011;13371;52.080;5.624;2023-02-03T13:49:05;16.55;;;3.28;;
25449;SDS011;13371;52.080;5.624;2023-02-03T13:51:36;16.20;;;3.00;;
25449;SDS011;13371;52.080;5.624;2023-02-03T13:56:57;17.25;;;3.60;;
25449;SDS011;13371;52.080;5.624;2023-02-03T13:59:38;15.30;;;3.08;;
25449;SDS011;13371;52.080;5.624;2023-02-03T14:12:37;25.15;;;3.58;;
25449;SDS011;13371;52.080;5.624;2023-02-03T14:15:16;17.67;;;2.58;;
25449;SDS011;13371;52.080;5.624;2023-02-03T14:21:09;19.67;;;4.63;;
25449;SDS011;13371;52.080;5.624;2023-02-03T14:23:48;26.77;;;4.32;;
25449;SDS011;13371;52.080;5.624;2023-02-03T14:26:18;23.02;;;3.75;;
25449;SDS011;13371;52.080;5.624;2023-02-03T14:28:47;22.58;;;3.72;;
25449;SDS011;13371;52.080;5.624;2023-02-03T14:44:25;21.05;;;3.78;;
25449;SDS011;13371;52.080;5.624;2023-02-03T14:47:34;15.80;;;2.97;;
25449;SDS011;13371;52.080;5.624;2023-02-03T14:50:20;22.23;;;3.08;;
25449;SDS011;13371;52.080;5.624;2023-02-03T14:56:12;14.35;;;3.25;;
25449;SDS011;13371;52.080;5.624;2023-02-03T14:58:49;17.30;;;3.85;;
25449;SDS011;13371;52.080;5.624;2023-02-03T15:02:12;18.70;;;3.45;;
25449;SDS011;13371;52.080;5.624;2023-02-03T15:06:43;30.77;;;3.95;;
25449;SDS011;13371;52.080;5.624;2023-02-03T15:09:12;19.35;;;3.55;;
25449;SDS011;13371;52.080;5.624;2023-02-03T15:12:00;20.35;;;3.58;;
25449;SDS011;13371;52.080;5.624;2023-02-03T15:14:26;20.17;;;3.97;;
25449;SDS011;13371;52.080;5.624;2023-02-03T15:16:57;21.75;;;4.32;;
25449;SDS011;13371;52.080;5.624;2023-02-03T15:19:48;22.00;;;4.53;;
25449;SDS011;13371;52.080;5.624;2023-02-03T15:22:19;18.15;;;3.58;;
25449;SDS011;13371;52.080;5.624;2023-02-03T15:24:54;31.38;;;4.47;;
25449;SDS011;13371;52.080;5.624;2023-02-03T15:27:26;24.00;;;4.18;;
25449;SDS011;13371;52.080;5.624;2023-02-03T15:29:54;19.80;;;4.22;;
25449;SDS011;13371;52.080;5.624;2023-02-03T15:32:24;22.05;;;3.78;;
25449;SDS011;13371;52.080;5.624;2023-02-03T15:35:02;25.20;;;3.75;;
25449;SDS011;13371;52.080;5.624;2023-02-03T15:40:14;21.35;;;4.68;;
25449;SDS011;13371;52.080;5.624;2023-02-03T15:45:26;25.85;;;4.43;;
25449;SDS011;13371;52.080;5.624;2023-02-03T15:51:11;17.00;;;3.65;;
25449;SDS011;13371;52.080;5.624;2023-02-03T15:56:39;22.23;;;4.45;;
25449;SDS011;13371;52.080;5.624;2023-02-03T15:59:25;17.77;;;4.05;;
25449;SDS011;13371;52.080;5.624;2023-02-03T16:02:11;19.00;;;4.13;;
25449;SDS011;13371;52.080;5.624;2023-02-03T16:04:41;19.67;;;3.85;;
25449;SDS011;13371;52.080;5.624;2023-02-03T16:07:19;33.75;;;7.47;;
25449;SDS011;13371;52.080;5.624;2023-02-03T16:09:56;20.40;;;4.25;;
25449;SDS011;13371;52.080;5.624;2023-02-03T16:12:26;24.23;;;5.18;;
25449;SDS011;13371;52.080;5.624;2023-02-03T16:14:56;29.13;;;5.30;;
25449;SDS011;13371;52.080;5.624;2023-02-03T16:20:05;30.02;;;5.85;;
25449;SDS011;13371;52.080;5.624;2023-02-03T16:25:23;28.05;;;4.70;;
25449;SDS011;13371;52.080;5.624;2023-02-03T16:27:54;28.13;;;6.25;;
25449;SDS011;13371;52.080;5.624;2023-02-03T16:33:42;25.73;;;4.97;;
25449;SDS011;13371;52.080;5.624;2023-02-03T16:36:30;22.10;;;5.10;;
25449;SDS011;13371;52.080;5.624;2023-02-03T16:39:14;22.58;;;4.32;;
25449;SDS011;13371;52.080;5.624;2023-02-03T16:41:58;20.42;;;4.45;;
25449;SDS011;13371;52.080;5.624;2023-02-03T16:44:43;23.48;;;5.65;;
25449;SDS011;13371;52.080;5.624;2023-02-03T16:47:29;20.33;;;4.70;;
25449;SDS011;13371;52.080;5.624;2023-02-03T16:50:18;23.35;;;4.35;;
25449;SDS011;13371;52.080;5.624;2023-02-03T16:53:04;34.45;;;7.35;;
25449;SDS011;13371;52.080;5.624;2023-02-03T16:55:35;17.35;;;3.92;;
25449;SDS011;13371;52.080;5.624;2023-02-03T16:58:00;28.83;;;5.38;;
25449;SDS011;13371;52.080;5.624;2023-02-03T17:00:26;22.13;;;4.22;;
25449;SDS011;13371;52.080;5.624;2023-02-03T17:02:52;30.38;;;5.65;;
25449;SDS011;13371;52.080;5.624;2023-02-03T17:05:18;15.40;;;3.97;;
25449;SDS011;13371;52.080;5.624;2023-02-03T17:07:43;20.20;;;4.28;;
25449;SDS011;13371;52.080;5.624;2023-02-03T17:10:09;16.80;;;3.67;;
25449;SDS011;13371;52.080;5.624;2023-02-03T17:12:35;21.23;;;4.55;;
25449;SDS011;13371;52.080;5.624;2023-02-03T17:15:02;24.02;;;4.85;;
25449;SDS011;13371;52.080;5.624;2023-02-03T17:17:29;26.02;;;5.57;;
25449;SDS011;13371;52.080;5.624;2023-02-03T17:19:55;29.08;;;4.90;;
25449;SDS011;13371;52.080;5.624;2023-02-03T17:22:23;29.75;;;5.22;;
25449;SDS011;13371;52.080;5.624;2023-02-03T17:24:49;24.38;;;5.00;;
25449;SDS011;13371;52.080;5.624;2023-02-03T17:27:15;19.90;;;4.80;;
25449;SDS011;13371;52.080;5.624;2023-02-03T17:29:41;28.27;;;5.65;;
25449;SDS011;13371;52.080;5.624;2023-02-03T17:32:07;22.15;;;5.05;;
25449;SDS011;13371;52.080;5.624;2023-02-03T17:34:33;16.42;;;3.58;;
25449;SDS011;13371;52.080;5.624;2023-02-03T17:36:59;22.60;;;4.43;;
25449;SDS011;13371;52.080;5.624;2023-02-03T17:39:24;22.02;;;4.80;;